Time;durP1;ratioP1;P1;durP2;ratioP2;P2;SDS_P1;SDS_P2;PMS_P1;PMS_P2;Temp;Humidity;BMP_temperature;BMP_pressure;BME280_temperature;BME280_humidity;BME280_pressure;Samples;Min_cycle;Max_cycle;Signal;HPM_P1;HPM_P2
2022/06/03 00:00:23;;;;;;;1.00;0.52;;;;;;;19.98;38.28;101799.06;16133358;19;129463;-55
2022/06/03 00:06:10;;;;;;;0.88;0.40;;;;;;;19.98;37.99;101804.63;16132666;19;129700;-53
2022/06/03 00:12:00;;;;;;;0.50;0.50;;;;;;;19.96;37.99;101799.28;16130666;19;129525;-52
2022/06/03 00:17:42;;;;;;;1.65;0.52;;;;;;;19.95;37.98;101797.56;16134399;19;129476;-51
2022/06/03 00:23:31;;;;;;;0.98;0.52;;;;;;;19.93;38.00;101799.78;16141162;19;130020;-53
2022/06/03 00:29:04;;;;;;;0.90;0.60;;;;;;;19.93;38.22;101798.91;16136544;19;129872;-48
2022/06/03 00:35:03;;;;;;;2.05;0.70;;;;;;;19.92;38.07;101792.50;16138322;19;132683;-62
2022/06/03 00:40:46;;;;;;;1.02;0.52;;;;;;;19.90;38.18;101789.13;16140595;19;129833;-62
2022/06/03 00:46:22;;;;;;;0.82;0.43;;;;;;;19.90;38.15;101785.47;16140117;19;130239;-60
2022/06/03 00:52:05;;;;;;;2.83;0.93;;;;;;;19.90;38.13;101780.78;16140201;19;128895;-58
2022/06/03 00:57:52;;;;;;;2.70;0.70;;;;;;;19.88;37.68;101784.88;16139474;19;130320;-58
2022/06/03 01:03:45;;;;;;;0.95;0.85;;;;;;;19.86;37.61;101776.78;16141186;19;129968;-62
2022/06/03 01:09:32;;;;;;;0.60;0.60;;;;;;;19.86;37.69;101776.78;16123811;19;130185;-56
2022/06/03 01:15:19;;;;;;;1.58;0.70;;;;;;;19.85;38.12;101761.19;16130311;19;129343;-60
2022/06/03 01:20:56;;;;;;;0.98;0.68;;;;;;;19.83;38.23;101752.25;16127882;19;130525;-62
2022/06/03 01:26:44;;;;;;;1.92;0.70;;;;;;;19.83;37.99;101763.34;16128638;19;130825;-52
2022/06/03 01:32:27;;;;;;;0.90;0.60;;;;;;;19.81;38.02;101760.81;16126843;19;129284;-58
2022/06/03 01:38:21;;;;;;;0.80;0.52;;;;;;;19.82;38.09;101758.88;16129453;19;130843;-59
2022/06/03 01:43:52;;;;;;;2.13;0.70;;;;;;;19.79;38.04;101760.19;16130457;19;129209;-60
2022/06/03 01:49:58;;;;;;;2.05;0.63;;;;;;;19.80;37.72;101744.41;16132178;19;129548;-52
2022/06/03 01:55:45;;;;;;;3.80;0.70;;;;;;;19.80;38.11;101747.19;16137289;19;129374;-56
2022/06/03 02:01:44;;;;;;;2.92;0.65;;;;;;;19.78;37.89;101749.34;16137547;19;129646;-57
2022/06/03 02:07:39;;;;;;;3.00;0.70;;;;;;;19.78;37.78;101736.28;16134016;19;131259;-64
2022/06/03 02:13:29;;;;;;;1.40;0.50;;;;;;;19.78;38.19;101729.91;16128593;19;129192;-57
2022/06/03 02:19:03;;;;;;;0.88;0.75;;;;;;;19.75;37.76;101731.22;16134956;19;129445;-53
2022/06/03 02:24:56;;;;;;;3.00;1.00;;;;;;;19.76;38.08;101720.97;16134018;19;129221;-55
2022/06/03 02:30:35;;;;;;;1.30;0.80;;;;;;;19.75;37.85;101710.94;16133540;19;128847;-50
2022/06/03 02:36:11;;;;;;;0.80;0.50;;;;;;;19.74;37.88;101709.25;16127655;19;129812;-66
2022/06/03 02:42:03;;;;;;;1.23;0.80;;;;;;;19.73;38.14;101704.75;16130915;19;130575;-53
2022/06/03 02:47:55;;;;;;;1.27;0.80;;;;;;;19.72;38.04;101694.72;16146301;19;130718;-53
2022/06/03 02:53:45;;;;;;;1.35;0.85;;;;;;;19.72;37.74;101694.72;16147025;19;130003;-58
2022/06/03 02:59:35;;;;;;;2.13;0.93;;;;;;;19.72;37.94;101700.28;16147309;19;129440;-56
2022/06/03 03:05:33;;;;;;;1.42;0.75;;;;;;;19.69;38.05;101693.28;16146674;19;129678;-55
2022/06/03 03:11:08;;;;;;;0.73;0.70;;;;;;;19.66;38.14;101700.16;16141729;19;132657;-64
2022/06/03 03:16:42;;;;;;;1.20;0.80;;;;;;;19.67;38.10;101696.31;16145254;19;130405;-56
2022/06/03 16:42:29;;;;;;;5.68;1.23;;;;;;;21.34;35.17;101473.84;16155129;19;130993;-52
2022/06/03 16:48:30;;;;;;;10.00;1.20;;;;;;;21.36;34.90;101468.88;16162326;19;128856;-52
2022/06/03 16:53:57;;;;;;;2.58;1.10;;;;;;;21.37;35.75;101478.91;16147786;19;130540;-52
2022/06/03 16:59:19;;;;;;;7.50;1.73;;;;;;;21.37;35.50;101476.13;16151951;19;129348;-49
2022/06/03 17:04:43;;;;;;;8.90;1.10;;;;;;;21.39;35.91;101475.88;16147504;19;129419;-49
2022/06/03 17:10:08;;;;;;;8.30;1.10;;;;;;;21.43;35.73;101474.28;16149685;19;129591;-48
2022/06/03 17:15:32;;;;;;;;;;;;;;;21.43;35.73;101469.53;16152922;19;131027;-52
2022/06/03 17:21:21;;;;;;;4.82;1.20;;;;;;;21.47;35.72;101475.47;16161498;19;129337;-52
2022/06/03 17:26:54;;;;;;;5.72;0.98;;;;;;;21.50;36.03;101478.63;16150123;19;128825;-50
2022/06/03 17:32:36;;;;;;;5.80;1.58;;;;;;;21.55;36.03;101479.78;16175591;19;128799;-53
2022/06/03 17:38:07;;;;;;;4.75;0.90;;;;;;;21.56;35.88;101478.69;16195589;19;129654;-52
2022/06/03 17:43:34;;;;;;;2.75;0.80;;;;;;;21.55;35.83;101486.19;16198887;19;129241;-55
2022/06/03 17:48:58;;;;;;;1.73;1.10;;;;;;;21.56;35.87;101487.03;16197285;19;129179;-52
2022/06/03 18:00:40;;;;;;;;;;;;;;;21.51;36.09;101491.44;16187245;19;129106;-54
2022/06/03 18:06:28;;;;;;;2.08;0.60;;;;;;;21.55;35.71;101483.41;16189132;19;128964;-53
2022/06/03 18:11:51;;;;;;;1.95;0.68;;;;;;;21.53;35.76;101482.81;16189023;19;128616;-55
2022/06/03 18:17:24;;;;;;;6.85;0.77;;;;;;;21.53;35.83;101493.97;16216812;19;129970;-53
2022/06/03 18:23:09;;;;;;;6.53;1.02;;;;;;;21.51;35.70;101485.00;16204645;19;128750;-56
2022/06/03 18:28:39;;;;;;;5.45;0.90;;;;;;;21.48;36.05;101491.03;16152978;19;129639;-54
2022/06/03 18:34:15;;;;;;;4.00;0.93;;;;;;;21.46;35.86;101482.97;16152385;19;129811;-54
2022/06/03 18:40:09;;;;;;;3.37;0.97;;;;;;;21.44;35.62;101481.53;16148750;19;130248;-53
2022/06/03 18:46:07;;;;;;;8.65;1.02;;;;;;;21.39;35.82;101482.28;16152821;19;128948;-54
2022/06/03 18:51:29;;;;;;;2.72;1.05;;;;;;;21.36;35.94;101485.56;16147819;19;129088;-53
2022/06/03 18:57:02;;;;;;;2.40;0.90;;;;;;;21.36;35.80;101493.91;16151689;19;128955;-54
2022/06/03 19:02:30;;;;;;;2.97;0.85;;;;;;;21.32;35.99;101495.50;16150827;19;129332;-54
2022/06/03 19:08:19;;;;;;;4.00;0.95;;;;;;;21.31;35.99;101504.94;16149368;19;129434;-54
2022/06/03 19:14:03;;;;;;;4.22;1.13;;;;;;;21.28;35.69;101506.31;16148186;19;129378;-54
2022/06/03 19:19:42;;;;;;;5.15;0.90;;;;;;;21.28;35.83;101513.81;16145741;19;129513;-54
2022/06/03 19:25:38;;;;;;;5.82;0.98;;;;;;;21.25;35.99;101526.28;16148027;19;129591;-54
2022/06/03 19:31:12;;;;;;;3.53;0.90;;;;;;;21.22;36.25;101522.06;16145047;19;130969;-52
2022/06/03 19:36:51;;;;;;;3.83;0.70;;;;;;;21.20;36.08;101534.53;16146039;19;130023;-51
2022/06/03 19:42:39;;;;;;;1.45;0.70;;;;;;;21.18;36.21;101540.34;16143874;19;128782;-54
2022/06/03 19:48:13;;;;;;;2.60;0.70;;;;;;;21.17;36.13;101540.59;16147915;19;130726;-51
2022/06/03 19:53:42;;;;;;;5.97;0.75;;;;;;;21.16;35.96;101567.59;16148035;19;128972;-53
2022/06/03 19:59:06;;;;;;;3.50;0.80;;;;;;;21.14;36.02;101568.91;16146905;19;129036;-53
2022/06/03 20:04:57;;;;;;;1.40;0.68;;;;;;;21.14;35.80;101575.34;16147438;19;128933;-54
2022/06/03 20:10:20;;;;;;;2.33;0.52;;;;;;;21.12;35.98;101580.28;16142885;19;129158;-52
2022/06/03 20:16:21;;;;;;;5.00;0.85;;;;;;;21.10;35.94;101585.25;16146611;19;129946;-54
2022/06/03 20:21:51;;;;;;;7.18;0.80;;;;;;;21.09;35.98;101608.59;16140318;19;129134;-49
2022/06/03 20:27:21;;;;;;;3.17;0.98;;;;;;;21.09;36.23;101610.56;16144990;19;129300;-51
2022/06/03 20:32:46;;;;;;;5.18;0.60;;;;;;;21.07;36.05;101616.34;16138312;19;129056;-50
2022/06/03 20:38:36;;;;;;;4.53;0.90;;;;;;;21.07;36.11;101616.34;16142388;19;129478;-54
2022/06/03 20:44:10;;;;;;;2.03;0.70;;;;;;;21.06;36.34;101617.44;16143499;19;128935;-52
2022/06/03 20:49:35;;;;;;;1.48;0.73;;;;;;;21.04;35.74;101623.25;16142860;19;129298;-52
2022/06/03 20:55:05;;;;;;;2.80;0.85;;;;;;;21.01;36.18;101632.09;16139871;19;129853;-54
2022/06/03 21:00:31;;;;;;;3.58;1.25;;;;;;;21.03;36.02;101635.47;16135620;19;131725;-52
2022/06/03 21:17:20;;;;;;;1.70;0.90;;;;;;;21.07;36.46;101630.25;16143567;19;129472;-55
2022/06/03 21:22:45;;;;;;;2.03;0.75;;;;;;;21.08;36.25;101631.13;16137162;19;129492;-52
2022/06/03 21:28:08;;;;;;;5.90;0.90;;;;;;;21.09;36.06;101644.78;16143526;19;130104;-53
2022/06/03 21:33:48;;;;;;;2.45;0.80;;;;;;;21.09;36.12;101655.91;16135467;19;129828;-50
2022/06/03 21:39:24;;;;;;;2.28;0.95;;;;;;;21.10;36.47;101652.03;16137120;19;129353;-50
2022/06/03 21:45:06;;;;;;;2.90;0.90;;;;;;;21.10;36.18;101659.53;16140299;19;130078;-53
2022/06/03 21:50:35;;;;;;;2.58;0.80;;;;;;;21.10;36.25;101656.75;16134959;19;129038;-50
2022/06/03 21:56:24;;;;;;;6.22;1.00;;;;;;;21.10;36.23;101671.50;16137399;19;129721;-53
2022/06/03 22:01:47;;;;;;;2.75;0.77;;;;;;;21.08;35.97;101664.50;16137585;19;128812;-52
2022/06/03 22:07:12;;;;;;;7.38;0.85;;;;;;;21.07;36.41;101674.78;16135376;19;129137;-53
2022/06/03 22:12:44;;;;;;;2.92;1.10;;;;;;;21.06;35.83;101673.94;16133154;19;128801;-53
2022/06/03 22:18:10;;;;;;;1.58;0.90;;;;;;;21.06;35.85;101679.50;16131298;19;129279;-52
2022/06/03 22:23:32;;;;;;;5.65;0.80;;;;;;;21.03;35.74;101674.41;16137817;19;131264;-54
2022/06/03 22:29:10;;;;;;;1.40;0.80;;;;;;;21.02;35.74;101678.28;16135408;19;129993;-54
2022/06/03 22:34:54;;;;;;;1.50;0.88;;;;;;;21.00;35.78;101674.91;16137173;19;129423;-54
2022/06/03 22:41:13;;;;;;;5.90;1.30;;;;;;;21.01;35.80;101686.88;16133350;19;130029;-55
2022/06/03 22:46:37;;;;;;;5.90;1.30;;;;;;;20.98;35.69;101692.94;16126100;19;129582;-54
2022/06/03 22:52:00;;;;;;;3.90;1.00;;;;;;;20.99;35.81;101695.47;16123471;19;130762;-53
2022/06/03 22:57:22;;;;;;;5.13;1.38;;;;;;;21.00;35.72;101690.75;16121031;19;130561;-55
2022/06/03 23:02:44;;;;;;;2.22;1.20;;;;;;;20.98;35.96;101682.66;16135436;19;129547;-55
2022/06/03 23:08:07;;;;;;;4.40;1.25;;;;;;;20.98;35.87;101692.94;16142974;19;129159;-54
2022/06/03 23:13:29;;;;;;;3.45;1.10;;;;;;;20.97;36.16;101685.69;16135995;19;130221;-54
2022/06/03 23:18:51;;;;;;;6.43;1.52;;;;;;;20.96;35.91;101670.06;16148588;19;128937;-54
2022/06/03 23:24:12;;;;;;;8.25;0.90;;;;;;;20.95;35.72;101682.28;16150186;19;129017;-53
2022/06/03 23:29:34;;;;;;;5.80;0.95;;;;;;;20.94;35.77;101681.47;16148365;19;129216;-56
2022/06/03 23:34:56;;;;;;;7.57;0.90;;;;;;;20.94;35.79;101681.47;16147240;19;129121;-55
2022/06/03 23:40:18;;;;;;;4.57;0.95;;;;;;;20.93;36.22;101679.75;16141801;19;129009;-56
2022/06/03 23:45:40;;;;;;;2.92;0.95;;;;;;;20.92;35.87;101674.47;16146433;19;129157;-54
2022/06/03 23:51:03;;;;;;;3.95;1.02;;;;;;;20.89;36.06;101682.19;16133941;19;129292;-53
2022/06/03 23:56:25;;;;;;;2.75;0.98;;;;;;;20.87;36.00;101684.38;16126329;19;131065;-55
